Time;durP1;ratioP1;P1;durP2;ratioP2;P2;SDS_P1;SDS_P2;PMS_P1;PMS_P2;Temp;Humidity;BMP_temperature;BMP_pressure;BME280_temperature;BME280_humidity;BME280_pressure;Samples;Min_cycle;Max_cycle;Signal;HPM_P1;HPM_P2
2022/08/27 00:00:28;;;;;;;;;3.25;3.25;;;;;22.86;48.43;100881.56;5077217;28;45454;-62
2022/08/27 00:39:06;;;;;;;;;3.00;3.00;;;;;22.58;49.40;100878.47;5098686;27;45701;-62
2022/08/27 00:41:42;;;;;;;;;2.50;2.50;;;;;22.59;49.45;100877.50;5097829;27;45437;-64
2022/08/27 00:44:34;;;;;;;;;5.00;5.00;;;;;22.58;49.38;100875.78;5098815;27;45445;-65
2022/08/27 00:47:15;;;;;;;;;3.00;3.00;;;;;22.58;49.33;100875.78;5029318;27;45459;-62
2022/08/27 00:50:07;;;;;;;;;4.00;4.00;;;;;22.58;49.38;100872.28;5064836;27;47080;-62
2022/08/27 00:53:02;;;;;;;;;2.00;2.00;;;;;22.57;49.49;100871.44;5079698;27;45502;-64
2022/08/27 00:55:53;;;;;;;;;2.50;2.50;;;;;22.57;48.97;100867.88;5034517;27;45458;-64
2022/08/27 00:58:58;;;;;;;;;3.75;3.75;;;;;22.53;49.71;100871.78;5098054;27;45477;-65
2022/08/27 01:07:33;;;;;;;;;2.00;2.00;;;;;22.49;49.58;100871.19;5101538;27;45529;-64
2022/08/27 01:10:07;;;;;;;;;3.00;3.00;;;;;22.47;49.77;100868.63;5065561;27;45524;-62
2022/08/27 01:18:17;;;;;;;;;3.50;3.00;;;;;22.43;49.46;100882.41;5101042;27;45489;-62
2022/08/27 01:21:21;;;;;;;;;1.25;1.25;;;;;22.40;49.79;100883.50;5049335;27;45438;-63
2022/08/27 01:24:12;;;;;;;;;3.25;3.25;;;;;22.38;50.02;100879.22;5082396;27;46685;-64
2022/08/27 01:26:50;;;;;;;;;4.00;4.00;;;;;22.43;49.60;100883.28;5100336;27;45429;-64
2022/08/27 01:29:21;;;;;;;;;3.75;3.00;;;;;22.39;49.81;100876.44;5015318;27;45592;-62
2022/08/27 01:32:01;;;;;;;;;4.75;3.00;;;;;22.39;50.11;100871.06;5064739;27;45602;-62
2022/08/27 01:34:30;;;;;;;;;5.00;5.00;;;;;22.38;50.07;100869.38;5016096;27;45570;-64
2022/08/27 01:40:29;;;;;;;;;4.25;4.25;;;;;22.40;49.99;100870.09;5101119;27;45635;-64
2022/08/27 01:43:04;;;;;;;;;5.75;4.75;;;;;22.41;50.03;100858.41;5047994;27;45624;-62
2022/08/27 01:46:12;;;;;;;;;3.00;3.00;;;;;22.41;49.88;100857.56;5047801;27;46741;-64
2022/08/27 01:52:24;;;;;;;;;3.25;3.25;;;;;22.40;50.05;100859.38;5057103;27;45502;-64
2022/08/27 01:55:14;;;;;;;;;6.25;6.25;;;;;22.40;50.12;100855.84;5065792;27;45791;-61
2022/08/27 01:57:53;;;;;;;;;3.50;3.50;;;;;22.40;50.11;100850.47;5083295;27;45438;-62
2022/08/27 02:03:24;;;;;;;;;5.00;5.00;;;;;22.40;50.21;100853.16;5100991;27;45540;-63
2022/08/27 02:05:53;;;;;;;;;5.00;5.00;;;;;22.35;50.15;100850.84;5080501;27;45791;-64
2022/08/27 02:08:39;;;;;;;;;3.75;3.75;;;;;22.37;50.05;100862.31;5082004;27;45483;-62
2022/08/27 02:11:11;;;;;;;;;4.00;4.00;;;;;22.38;50.56;100857.78;5082323;27;45808;-63
2022/08/27 02:16:31;;;;;;;;;5.75;5.00;;;;;22.41;50.12;100857.56;5100152;27;45463;-62
2022/08/27 02:19:20;;;;;;;;;6.00;4.00;;;;;22.39;50.22;100859.50;5085757;27;46147;-63
2022/08/27 02:22:10;;;;;;;;;7.00;6.75;;;;;22.37;50.25;100861.47;5064278;27;45532;-63
2022/08/27 02:24:47;;;;;;;;;5.00;5.00;;;;;22.29;50.38;100859.38;5064225;27;45467;-63
2022/08/27 02:27:41;;;;;;;;;5.25;5.25;;;;;22.30;50.33;100863.78;5082314;27;45442;-64
2022/08/27 02:30:30;;;;;;;;;5.00;5.00;;;;;22.31;50.33;100852.09;5047237;27;45535;-64
2022/08/27 02:33:08;;;;;;;;;5.25;5.25;;;;;22.31;50.38;100860.13;5067882;27;45568;-65
2022/08/27 02:35:46;;;;;;;;;4.75;4.75;;;;;22.31;50.22;100861.97;5064307;27;45494;-64
2022/08/27 02:38:42;;;;;;;;;6.50;5.25;;;;;22.28;50.37;100857.69;4993761;28;45459;-64
2022/08/27 02:41:11;;;;;;;;;5.75;5.75;;;;;22.25;50.56;100857.94;5042907;28;46366;-62
2022/08/27 02:43:44;;;;;;;;;4.00;4.00;;;;;22.22;50.41;100852.84;5079946;28;45464;-63
2022/08/27 02:46:19;;;;;;;;;5.00;5.00;;;;;22.22;50.36;100853.69;5056910;28;45554;-63
2022/08/27 02:48:45;;;;;;;;;4.75;3.50;;;;;22.19;50.41;100853.94;5010155;28;45611;-63
2022/08/27 02:51:19;;;;;;;;;6.00;5.00;;;;;22.16;50.78;100851.44;5079123;28;46322;-62
2022/08/27 02:54:08;;;;;;;;;17.33;16.00;;;;;22.15;50.66;100849.75;5079513;28;45544;-62
2022/08/27 02:57:01;;;;;;;;;5.75;5.75;;;;;22.11;50.60;100840.28;5043765;28;45480;-62
2022/08/27 03:02:22;;;;;;;;;3.00;3.00;;;;;22.06;51.30;100843.31;5079253;28;45520;-65
2022/08/27 03:05:06;;;;;;;;;4.50;4.50;;;;;22.05;50.99;100849.63;5078385;28;45478;-65
2022/08/27 03:07:36;;;;;;;;;3.50;3.00;;;;;22.05;50.95;100846.94;5060448;28;45467;-64
2022/08/27 03:10:06;;;;;;;;;7.50;5.00;;;;;22.03;50.94;100842.69;5060875;28;45483;-63
2022/08/27 03:12:45;;;;;;;;;6.75;4.00;;;;;21.99;51.09;100849.28;5026586;28;46449;-63
2022/08/27 03:15:18;;;;;;;;;3.75;3.75;;;;;21.99;51.19;100841.25;5014060;28;45538;-64
2022/08/27 03:23:53;;;;;;;;;3.50;3.50;;;;;21.93;51.23;100845.25;5078765;28;45532;-64
2022/08/27 03:26:44;;;;;;;;;5.25;5.25;;;;;21.90;51.17;100842.81;5060319;28;45523;-62
2022/08/27 03:29:18;;;;;;;;;4.00;4.00;;;;;21.91;51.11;100838.31;5022320;28;45492;-63
2022/08/27 03:31:55;;;;;;;;;3.00;3.00;;;;;21.89;51.32;100835.75;5021923;28;45591;-64
2022/08/27 03:37:36;;;;;;;;;4.00;4.00;;;;;21.89;51.68;100832.22;5093818;27;45469;-62
2022/08/27 03:40:11;;;;;;;;;4.00;4.00;;;;;21.86;51.76;100832.47;5087119;27;45491;-63
2022/08/27 03:42:44;;;;;;;;;4.25;4.25;;;;;21.86;51.82;100829.78;5062787;27;45538;-64
2022/08/27 03:45:17;;;;;;;;;5.50;5.50;;;;;21.90;51.57;100832.13;5080694;27;45570;-63
2022/08/27 03:48:05;;;;;;;;;3.00;3.00;;;;;21.91;51.59;100830.28;5063741;27;45524;-62
2022/08/27 03:53:46;;;;;;;;;4.00;4.00;;;;;21.87;51.55;100823.44;5100050;27;45524;-62
2022/08/27 03:56:15;;;;;;;;;3.50;3.50;;;;;21.86;51.63;100819.09;5099656;27;45469;-63
2022/08/27 04:12:37;;;;;;;;;5.00;4.00;;;;;21.81;51.61;100822.97;5097930;27;45468;-63
2022/08/27 04:15:10;;;;;;;;;2.25;2.25;;;;;21.81;51.56;100824.78;5099344;27;45473;-64
2022/08/27 04:18:02;;;;;;;;;4.25;4.00;;;;;21.75;51.89;100822.59;5046620;27;45441;-62
2022/08/27 04:20:32;;;;;;;;;3.00;3.00;;;;;21.73;51.80;100820.03;5098044;27;46314;-63
2022/08/27 04:23:10;;;;;;;;;4.00;4.00;;;;;21.69;51.92;100815.91;5098956;27;45489;-64
2022/08/27 04:25:53;;;;;;;;;3.75;3.75;;;;;21.67;51.89;100814.34;5046369;27;45591;-64
2022/08/27 04:28:21;;;;;;;;;6.00;5.00;;;;;21.65;52.12;100811.75;5014430;27;45587;-64
2022/08/27 04:33:37;;;;;;;;;4.75;3.50;;;;;21.62;51.93;100818.19;5099027;27;45509;-64
2022/08/27 04:36:08;;;;;;;;;3.00;3.00;;;;;21.60;51.90;100805.91;5098278;27;45485;-62
2022/08/27 04:38:39;;;;;;;;;3.75;3.75;;;;;21.59;51.92;100822.97;5083350;27;45541;-63
2022/08/27 04:41:25;;;;;;;;;4.00;4.00;;;;;21.58;51.83;100819.44;5049313;27;45501;-65
2022/08/27 04:44:14;;;;;;;;;3.50;3.50;;;;;21.56;52.03;100815.16;5037687;27;46103;-64
2022/08/27 04:46:58;;;;;;;;;3.00;3.00;;;;;21.59;52.04;100812.25;5003808;27;45604;-63
2022/08/27 04:49:53;;;;;;;;;3.00;3.00;;;;;21.55;52.07;100826.84;5037293;27;45550;-62
2022/08/27 04:55:22;;;;;;;;;3.00;3.00;;;;;21.59;51.88;100818.44;5101430;27;45500;-62
2022/08/27 04:58:03;;;;;;;;;3.25;3.00;;;;;21.58;51.99;100815.91;5048299;27;45558;-62
2022/08/27 05:00:49;;;;;;;;;5.25;4.50;;;;;21.55;52.27;100822.34;5066395;27;45436;-64
2022/08/27 05:03:33;;;;;;;;;4.25;4.25;;;;;21.53;51.97;100816.25;5038788;27;46287;-63
2022/08/27 05:06:06;;;;;;;;;4.00;3.00;;;;;21.55;52.22;100816.16;5049012;27;45487;-64
2022/08/27 05:22:04;;;;;;;;;6.00;5.00;;;;;21.57;51.95;100832.91;5101771;27;45374;-64
2022/08/27 05:24:44;;;;;;;;;4.50;4.50;;;;;21.54;51.87;100838.53;5099847;27;45417;-63
2022/08/27 05:27:35;;;;;;;;;4.50;3.25;;;;;21.50;51.78;100842.41;5092747;27;45438;-62
2022/08/27 05:30:03;;;;;;;;;3.50;3.50;;;;;21.47;51.76;100840.00;5083349;27;45465;-64
2022/08/27 05:32:52;;;;;;;;;5.00;5.00;;;;;21.46;51.65;100840.94;5065547;27;45640;-63
2022/08/27 05:35:20;;;;;;;;;5.00;5.00;;;;;21.40;51.64;100845.78;5064528;27;45478;-63
2022/08/27 05:37:54;;;;;;;;;5.75;4.75;;;;;21.36;51.90;100848.81;5100226;27;58682;-62
2022/08/27 05:40:30;;;;;;;;;5.00;5.00;;;;;21.34;51.77;100856.94;5048444;27;45696;-62
2022/08/27 05:43:10;;;;;;;;;6.75;5.50;;;;;21.34;51.97;100853.41;5048414;27;45548;-64
2022/08/27 05:45:54;;;;;;;;;4.25;4.25;;;;;21.33;52.16;100847.22;5049013;27;45432;-64
2022/08/27 05:48:45;;;;;;;;;6.00;5.25;;;;;21.35;52.38;100853.28;5079096;27;46387;-63
2022/08/27 05:51:31;;;;;;;;;4.50;4.50;;;;;21.37;51.89;100851.38;5082191;27;45467;-62
2022/08/27 05:57:05;;;;;;;;;4.50;4.50;;;;;21.43;51.78;100849.22;5085768;27;45648;-63
2022/08/27 06:02:19;;;;;;;;;5.00;5.00;;;;;21.37;51.80;100843.34;5085082;27;45426;-62
2022/08/27 06:04:59;;;;;;;;;6.00;6.00;;;;;21.30;52.06;100842.06;5101276;27;45495;-63
2022/08/27 06:10:22;;;;;;;;;7.00;5.67;;;;;21.30;52.09;100839.41;5101101;27;45837;-64
2022/08/27 06:12:58;;;;;;;;;5.00;5.00;;;;;21.32;51.91;100844.66;5081549;27;45379;-63
2022/08/27 06:15:56;;;;;;;;;4.33;4.33;;;;;21.30;52.17;100842.06;5100301;27;45488;-64
2022/08/27 06:22:25;;;;;;;;;5.00;5.00;;;;;21.29;52.27;100851.09;5100897;27;45869;-63
2022/08/27 06:25:03;;;;;;;;;6.33;6.33;;;;;21.30;52.00;100852.78;5041276;27;45517;-65
2022/08/27 06:27:33;;;;;;;;;7.00;6.00;;;;;21.30;51.85;100850.09;5082553;27;45502;-65
2022/08/27 06:30:04;;;;;;;;;7.00;5.00;;;;;21.27;52.18;100854.84;5082074;27;45469;-63
2022/08/27 06:32:37;;;;;;;;;7.33;6.00;;;;;21.22;52.56;100854.34;5064970;27;46356;-63
2022/08/27 06:35:33;;;;;;;;;5.00;5.00;;;;;21.25;52.67;100843.41;5064922;27;45992;-65
2022/08/27 06:41:35;;;;;;;;;7.00;7.00;;;;;21.30;52.11;100858.13;5079746;28;45482;-64
2022/08/27 06:44:35;;;;;;;;;5.33;5.33;;;;;21.28;51.87;100857.41;5078298;28;46417;-63
2022/08/27 06:47:21;;;;;;;;;5.00;5.00;;;;;21.26;51.88;100863.84;5078915;28;45621;-63
2022/08/27 06:49:54;;;;;;;;;7.00;7.00;;;;;21.21;52.16;100861.50;5044197;28;45467;-62
2022/08/27 06:52:27;;;;;;;;;6.33;6.33;;;;;21.18;51.59;100861.75;5061992;28;45601;-64
2022/08/27 06:55:02;;;;;;;;;5.33;4.67;;;;;21.16;51.90;100856.50;5044066;28;46240;-64
2022/08/27 06:57:30;;;;;;;;;8.00;5.33;;;;;21.17;52.23;100862.69;5044154;28;45428;-64
2022/08/27 06:59:56;;;;;;;;;7.00;6.00;;;;;21.16;51.96;100869.03;5060156;28;45495;-63
2022/08/27 07:02:26;;;;;;;;;7.00;6.00;;;;;21.15;52.12;100875.38;5079895;28;45535;-62
2022/08/27 07:05:06;;;;;;;;;7.00;6.00;;;;;21.12;52.03;100870.25;5042777;28;46285;-63
2022/08/27 07:10:42;;;;;;;;;6.67;6.67;;;;;;;;5079813;28;45500;-63
2022/08/27 07:13:29;;;;;;;;;6.33;6.33;;;;;21.05;52.27;100871.66;5044639;28;45712;-61
2022/08/27 07:16:13;;;;;;;;;5.33;5.33;;;;;21.09;52.63;100879.34;5060727;28;46975;-62
2022/08/27 07:21:58;;;;;;;;;6.33;6.33;;;;;21.14;52.22;100879.88;5063713;28;45424;-61
2022/08/27 07:24:28;;;;;;;;;5.33;5.33;;;;;21.15;52.40;100883.38;5061325;28;45018;-62
2022/08/27 07:26:54;;;;;;;;;6.00;6.00;;;;;21.19;52.26;100883.03;5043646;28;46251;-63
2022/08/27 07:29:23;;;;;;;;;8.67;6.67;;;;;21.23;52.14;100877.47;5078749;28;45450;-62
2022/08/27 07:31:56;;;;;;;;;5.67;5.67;;;;;21.28;52.87;100873.47;5043962;28;45508;-61
2022/08/27 07:34:36;;;;;;;;;7.00;7.00;;;;;21.32;52.73;100879.44;5026803;28;45609;-61
2022/08/27 07:37:09;;;;;;;;;7.33;6.67;;;;;21.42;52.11;100880.47;5071894;27;45486;-62
2022/08/27 07:39:43;;;;;;;;;9.00;8.00;;;;;21.48;52.08;100889.84;5080356;27;45477;-62
2022/08/27 07:45:07;;;;;;;;;11.33;10.33;;;;;21.53;51.50;100887.69;5069442;27;45459;-62
2022/08/27 07:47:35;;;;;;;;;7.00;7.00;;;;;21.50;51.72;100885.25;5099653;27;46791;-64
2022/08/27 07:50:06;;;;;;;;;8.00;7.00;;;;;21.50;51.84;100888.75;5098954;27;45394;-63
2022/08/27 07:52:48;;;;;;;;;6.00;6.00;;;;;21.50;51.33;100885.25;5047216;27;45439;-63
2022/08/27 07:55:25;;;;;;;;;8.67;8.67;;;;;21.52;51.57;100892.19;5047976;27;45748;-64
2022/08/27 07:58:02;;;;;;;;;5.00;5.00;;;;;21.55;51.32;100888.41;5046582;27;45493;-62
2022/08/27 08:00:42;;;;;;;;;8.33;8.33;;;;;21.58;51.29;100894.38;5032064;27;45558;-62
2022/08/27 08:03:33;;;;;;;;;5.25;5.25;;;;;21.61;51.58;100904.84;5081270;27;45482;-63
2022/08/27 08:09:18;;;;;;;;;7.00;7.00;;;;;21.77;51.24;100895.63;5099198;27;45568;-64
2022/08/27 08:12:04;;;;;;;;;8.33;8.00;;;;;21.86;51.15;100896.75;5081150;27;45522;-61
2022/08/27 08:14:45;;;;;;;;;6.67;6.67;;;;;21.88;50.88;100897.47;5084718;27;45388;-63
2022/08/27 08:17:24;;;;;;;;;7.00;7.00;;;;;21.92;50.85;100904.28;5076846;27;45567;-64
2022/08/27 08:20:01;;;;;;;;;5.00;5.00;;;;;21.95;50.71;100906.72;5101102;27;45752;-62
2022/08/27 08:22:58;;;;;;;;;7.25;7.25;;;;;21.97;50.75;100913.66;5102225;27;45473;-64
2022/08/27 08:25:34;;;;;;;;;8.33;7.00;;;;;22.02;50.96;100908.81;5084732;27;45517;-63
2022/08/27 08:28:11;;;;;;;;;8.00;7.00;;;;;22.11;50.49;100904.56;5050030;27;45524;-64
2022/08/27 08:31:04;;;;;;;;;7.00;6.00;;;;;22.14;50.51;100903.44;5084096;27;46296;-63
2022/08/27 08:33:59;;;;;;;;;6.00;6.00;;;;;22.21;50.24;100902.03;5049814;27;45563;-63
2022/08/27 08:37:00;;;;;;;;;6.75;6.75;;;;;22.28;50.33;100906.78;5083791;27;45552;-64
2022/08/27 08:42:59;;;;;;;;;5.25;5.25;;;;;22.28;49.61;100896.06;5082317;28;45468;-63
2022/08/27 08:45:33;;;;;;;;;8.00;8.00;;;;;22.34;49.60;100899.22;5060670;28;45496;-62
2022/08/27 08:48:21;;;;;;;;;6.00;6.00;;;;;22.34;50.25;100901.91;5081949;28;45521;-64
2022/08/27 08:50:49;;;;;;;;;9.00;9.00;;;;;22.39;49.67;100900.56;5046626;28;45539;-62
2022/08/27 08:53:55;;;;;;;;;4.00;4.00;;;;;22.42;48.82;100894.94;5080865;28;45569;-62
2022/08/27 08:57:01;;;;;;;;;4.75;4.75;;;;;22.44;48.40;100886.78;5029797;28;45501;-63
2022/08/27 09:00:11;;;;;;;;;4.00;4.00;;;;;22.46;48.51;100892.84;5072249;28;45572;-62
2022/08/27 09:02:47;;;;;;;;;4.75;4.75;;;;;22.50;48.35;100891.66;5015865;28;45717;-63
2022/08/27 09:05:19;;;;;;;;;4.25;4.25;;;;;22.51;48.40;100893.34;5054283;28;45560;-62
2022/08/27 09:07:54;;;;;;;;;5.00;4.25;;;;;22.52;47.36;100896.91;5030465;28;45608;-63
2022/08/27 09:10:58;;;;;;;;;4.50;4.00;;;;;22.53;47.00;100899.44;5081152;28;45410;-63
2022/08/27 09:14:07;;;;;;;;;5.00;5.00;;;;;22.56;45.70;100898.34;5063323;28;45628;-62
2022/08/27 09:16:44;;;;;;;;;4.75;4.75;;;;;22.63;46.46;100897.72;5045607;28;46409;-62
2022/08/27 09:19:24;;;;;;;;;3.75;3.75;;;;;22.65;45.91;100892.25;5042517;28;45592;-62
2022/08/27 09:22:37;;;;;;;;;5.00;4.00;;;;;22.66;45.65;100902.00;5077976;28;45512;-63
2022/08/27 09:25:43;;;;;;;;;5.25;5.25;;;;;22.70;45.66;100898.06;5069429;28;45535;-63
2022/08/27 09:42:06;;;;;;;;;4.75;4.75;;;;;22.93;45.27;100901.56;4861757;27;46840;-64
2022/08/27 09:48:05;;;;;;;;;5.25;4.00;;;;;22.97;44.81;100903.03;5078327;27;45557;-62
2022/08/27 09:50:58;;;;;;;;;5.25;4.00;;;;;23.02;44.35;100898.13;5100774;27;45466;-63
2022/08/27 09:53:55;;;;;;;;;3.25;3.25;;;;;23.04;43.24;100906.91;5048098;27;45547;-62
2022/08/27 09:59:56;;;;;;;;;5.00;3.50;;;;;23.10;43.04;100908.22;5100727;27;45504;-62
2022/08/27 10:02:26;;;;;;;;;4.00;3.00;;;;;23.12;42.78;100906.28;5064894;27;45407;-63
2022/08/27 10:05:23;;;;;;;;;3.25;3.25;;;;;23.12;42.50;100904.44;5100711;27;46126;-63
2022/08/27 10:08:27;;;;;;;;;3.25;3.00;;;;;23.15;42.41;100906.00;5083207;27;44868;-62
2022/08/27 10:11:10;;;;;;;;;4.25;4.25;;;;;23.10;42.54;100908.22;5094945;27;45559;-64
2022/08/27 10:14:19;;;;;;;;;4.50;4.50;;;;;23.10;42.68;100903.69;5101278;27;45607;-61
2022/08/27 10:17:27;;;;;;;;;5.50;4.25;;;;;23.17;42.76;100903.22;5007850;27;45649;-62
2022/08/27 10:20:38;;;;;;;;;3.00;3.00;;;;;23.24;42.46;100897.22;5065145;27;45576;-62
2022/08/27 10:23:45;;;;;;;;;4.00;4.00;;;;;23.30;42.17;100895.84;5099499;27;45416;-62
2022/08/27 10:27:12;;;;;;;;;4.25;3.00;;;;;23.35;42.71;100905.19;5100889;27;45484;-64
2022/08/27 10:30:07;;;;;;;;;6.00;5.00;;;;;23.35;42.46;100902.53;5030465;27;45549;-63
2022/08/27 10:33:11;;;;;;;;;5.25;5.25;;;;;23.40;43.09;100896.78;5082896;27;45425;-63
2022/08/27 10:35:59;;;;;;;;;7.00;5.00;;;;;23.46;42.87;100900.75;5063774;27;45517;-61
2022/08/27 10:39:04;;;;;;;;;3.25;3.25;;;;;23.51;41.99;100891.34;5100237;27;45603;-63
2022/08/27 10:42:29;;;;;;;;;5.00;5.00;;;;;23.53;42.04;100881.28;4970466;28;45913;-64
2022/08/27 10:48:50;;;;;;;;;4.00;4.00;;;;;23.69;42.61;100893.41;4998303;28;45451;-62
2022/08/27 10:52:00;;;;;;;;;6.00;6.00;;;;;23.72;41.94;100880.63;4998204;28;45405;-64
2022/08/27 10:54:54;;;;;;;;;5.25;5.00;;;;;23.77;42.22;100885.56;4981201;28;45509;-63
2022/08/27 11:01:43;;;;;;;;;9.00;6.75;;;;;23.75;42.03;100882.16;4958632;28;45644;-63
2022/08/27 11:04:27;;;;;;;;;4.00;4.00;;;;;23.76;42.05;100874.00;4950413;28;45578;-62
2022/08/27 11:07:19;;;;;;;;;4.00;4.00;;;;;23.84;41.86;100875.16;4925666;28;45521;-64
2022/08/27 11:16:51;;;;;;;;;4.75;4.75;;;;;23.96;40.90;100868.72;4957623;28;45595;-63
2022/08/27 11:20:11;;;;;;;;;6.25;6.25;;;;;23.99;40.63;100863.94;4962393;28;45548;-64
2022/08/27 11:26:02;;;;;;;;;4.00;4.00;;;;;24.02;40.48;100852.06;4997298;28;44947;-64
2022/08/27 11:29:15;;;;;;;;;5.75;4.50;;;;;24.05;40.20;100849.09;4964979;28;45625;-65
2022/08/27 11:32:14;;;;;;;;;5.50;5.00;;;;;24.09;39.38;100849.69;4961180;28;45556;-63
2022/08/27 11:34:59;;;;;;;;;5.00;5.00;;;;;24.14;39.97;100842.06;4961625;28;45550;-63
2022/08/27 11:38:04;;;;;;;;;7.00;5.00;;;;;24.17;38.85;100841.78;4989926;28;45554;-65
2022/08/27 11:44:26;;;;;;;;;3.00;3.00;;;;;24.13;38.57;100848.44;5015771;28;45734;-63
2022/08/27 11:47:38;;;;;;;;;5.25;5.25;;;;;24.20;38.80;100841.50;5015582;28;45571;-63
2022/08/27 11:50:17;;;;;;;;;3.00;3.00;;;;;24.26;38.31;100849.06;5000031;28;44870;-64
2022/08/27 11:53:28;;;;;;;;;5.00;5.00;;;;;24.34;38.50;100835.78;4982513;28;45538;-65
2022/08/27 11:56:27;;;;;;;;;5.75;5.00;;;;;24.45;39.03;100853.66;4972558;28;45545;-63
2022/08/27 11:59:36;;;;;;;;;4.50;4.50;;;;;24.49;38.54;100844.31;5010158;28;45534;-62
2022/08/27 12:02:43;;;;;;;;;3.00;3.00;;;;;24.55;37.67;100842.91;4983480;28;45699;-64
2022/08/27 12:05:47;;;;;;;;;4.00;4.00;;;;;24.68;37.51;100844.34;5015022;28;45557;-62
2022/08/27 12:08:38;;;;;;;;;4.50;4.50;;;;;24.87;37.13;100842.66;4938592;28;45562;-63
2022/08/27 12:11:48;;;;;;;;;3.75;3.50;;;;;25.09;36.57;100846.91;4937351;28;45446;-65
2022/08/27 12:14:23;;;;;;;;;4.00;4.00;;;;;25.30;35.91;100844.94;4936773;28;45601;-63
2022/08/27 12:17:39;;;;;;;;;7.00;4.25;;;;;25.44;36.27;100842.78;4937352;28;45637;-65
2022/08/27 12:20:43;;;;;;;;;3.25;3.25;;;;;25.53;34.08;100847.31;4918884;28;45623;-63
2022/08/27 12:23:40;;;;;;;;;3.50;3.50;;;;;25.62;35.47;100854.50;4903105;28;45530;-64
2022/08/27 12:29:56;;;;;;;;;7.00;5.00;;;;;25.79;33.94;100843.00;4918838;28;45557;-63
2022/08/27 12:32:51;;;;;;;;;5.00;5.00;;;;;25.82;34.41;100843.66;4886776;28;46245;-64
2022/08/27 12:36:06;;;;;;;;;4.00;4.00;;;;;25.89;34.66;100839.44;4873929;28;45499;-64
2022/08/27 12:39:02;;;;;;;;;4.00;4.00;;;;;25.88;33.44;100832.34;4902609;28;45442;-63
2022/08/27 12:41:55;;;;;;;;;5.00;5.00;;;;;25.96;34.23;100837.84;4893421;28;45554;-63
2022/08/27 12:44:33;;;;;;;;;6.00;2.75;;;;;26.07;34.63;100834.13;4931618;28;46227;-64
2022/08/27 12:47:30;;;;;;;;;4.75;4.00;;;;;26.14;34.39;100833.38;5003171;28;45532;-65
2022/08/27 12:50:19;;;;;;;;;4.75;4.00;;;;;26.24;34.90;100833.31;4987200;28;45870;-64
2022/08/27 12:53:31;;;;;;;;;4.00;4.00;;;;;26.05;34.66;100826.16;5035295;28;45443;-65
2022/08/27 12:56:44;;;;;;;;;5.75;5.75;;;;;26.17;33.74;100825.00;5012754;28;45365;-64
2022/08/27 12:59:48;;;;;;;;;6.20;5.20;;;;;26.40;33.73;100821.88;5056399;28;45522;-65
2022/08/27 13:02:39;;;;;;;;;5.00;4.75;;;;;26.54;33.17;100832.16;5025878;28;45594;-63
2022/08/27 13:05:06;;;;;;;;;4.75;3.00;;;;;26.69;33.66;100826.25;5095551;27;45621;-63
2022/08/27 13:07:49;;;;;;;;;3.75;3.75;;;;;26.78;32.94;100817.22;5101574;27;46153;-64
2022/08/27 13:10:53;;;;;;;;;5.20;4.40;;;;;26.92;33.39;100830.19;5066291;27;45424;-66
2022/08/27 13:13:28;;;;;;;;;5.25;4.25;;;;;27.02;33.12;100827.41;5083634;27;45520;-64
2022/08/27 13:19:35;;;;;;;;;4.25;4.25;;;;;26.98;32.74;100820.63;5102512;27;45530;-65
2022/08/27 13:22:10;;;;;;;;;5.00;5.00;;;;;26.95;33.17;100816.38;5066241;27;45467;-63
2022/08/27 13:24:58;;;;;;;;;4.80;4.60;;;;;27.13;32.87;100818.19;5033877;27;45471;-66
2022/08/27 13:27:33;;;;;;;;;4.50;4.00;;;;;27.20;32.36;100819.31;5084176;27;45557;-63
2022/08/27 13:33:29;;;;;;;;;4.80;4.80;;;;;27.25;32.19;100825.09;5102837;27;45420;-65
2022/08/27 13:36:08;;;;;;;;;2.25;2.25;;;;;27.26;31.44;100813.28;5020573;27;45500;-64
2022/08/27 13:38:44;;;;;;;;;7.00;7.00;;;;;27.39;32.13;100819.13;5083876;27;45412;-63
2022/08/27 13:42:05;;;;;;;;;3.75;3.00;;;;;27.60;31.63;100818.75;5064796;27;45535;-64
2022/08/27 13:44:38;;;;;;;;;5.00;5.00;;;;;27.76;31.97;100813.44;4968962;28;45602;-63
2022/08/27 13:47:33;;;;;;;;;3.00;3.00;;;;;27.94;31.15;100817.94;5018775;28;45751;-64
2022/08/27 13:50:07;;;;;;;;;3.50;3.50;;;;;28.07;30.88;100814.78;4985062;28;45448;-63
2022/08/27 13:55:26;;;;;;;;;3.40;2.40;;;;;28.04;30.54;100812.41;5017905;28;45520;-66
2022/08/27 14:01:33;;;;;;;;;3.50;2.00;;;;;28.08;30.24;100805.69;5018860;28;45622;-66
2022/08/27 14:04:25;;;;;;;;;3.40;2.60;;;;;28.08;30.69;100802.97;4984239;28;46436;-65
2022/08/27 14:14:00;;;;;;;;;2.75;2.75;;;;;28.03;30.31;100795.34;5016517;28;45434;-63
2022/08/27 14:17:04;;;;;;;;;2.80;2.80;;;;;28.08;30.76;100793.00;4985577;28;45434;-65
2022/08/27 14:23:17;;;;;;;;;2.00;2.00;;;;;28.09;30.09;100796.53;5081522;28;45433;-64
2022/08/27 14:26:02;;;;;;;;;5.00;3.75;;;;;28.05;30.37;100789.75;5044086;28;45463;-64
2022/08/27 14:28:46;;;;;;;;;3.00;3.00;;;;;27.96;29.99;100780.78;5014254;28;45535;-65
2022/08/27 14:34:10;;;;;;;;;2.00;2.00;;;;;27.57;31.29;100775.84;5080670;28;45567;-63
2022/08/27 14:36:54;;;;;;;;;2.00;2.00;;;;;27.31;31.05;100768.59;5044350;28;45510;-65
2022/08/27 14:39:53;;;;;;;;;3.00;3.00;;;;;27.09;31.42;100769.91;5063723;28;45526;-64
2022/08/27 14:42:26;;;;;;;;;3.60;3.60;;;;;26.98;31.54;100766.63;5015053;28;45532;-64
2022/08/27 14:45:09;;;;;;;;;4.60;3.20;;;;;26.81;31.17;100760.22;5043775;28;45691;-64
2022/08/27 14:48:02;;;;;;;;;3.00;3.00;;;;;26.64;32.14;100752.00;5027392;28;45590;-64
2022/08/27 14:50:38;;;;;;;;;2.25;2.25;;;;;26.53;31.73;100759.50;5027392;28;45563;-65
2022/08/27 14:53:16;;;;;;;;;4.60;4.60;;;;;26.46;31.63;100761.91;5043949;28;45543;-66
2022/08/27 14:56:04;;;;;;;;;4.50;4.50;;;;;26.44;32.35;100762.09;5044359;28;45634;-63
2022/08/27 14:58:56;;;;;;;;;3.25;2.50;;;;;26.38;31.79;100757.31;5032268;28;45615;-64
2022/08/27 15:01:37;;;;;;;;;2.75;2.75;;;;;26.34;31.82;100760.44;5040974;28;45592;-63
2022/08/27 15:07:14;;;;;;;;;2.40;2.40;;;;;26.24;32.30;100757.81;5062928;28;45495;-65
2022/08/27 15:09:49;;;;;;;;;4.75;4.75;;;;;26.25;32.25;100745.16;5044501;28;45635;-66
2022/08/27 15:12:54;;;;;;;;;1.25;1.25;;;;;26.26;32.08;100754.97;5045463;28;48144;-64
2022/08/27 15:15:24;;;;;;;;;2.00;2.00;;;;;26.24;32.64;100747.03;5031761;28;45482;-66
2022/08/27 15:20:55;;;;;;;;;5.00;4.00;;;;;26.21;32.66;100750.88;5043902;28;45522;-66
2022/08/27 15:23:59;;;;;;;;;3.00;2.00;;;;;26.17;32.72;100746.81;5065515;28;45543;-62
2022/08/27 15:29:48;;;;;;;;;3.60;3.20;;;;;26.15;33.13;100742.56;5079826;28;45546;-66
2022/08/27 15:35:32;;;;;;;;;2.00;2.00;;;;;26.15;32.78;100751.50;5064103;28;45530;-64
2022/08/27 15:38:06;;;;;;;;;2.20;2.20;;;;;26.05;33.25;100741.75;5010534;28;44858;-63
2022/08/27 15:43:45;;;;;;;;;2.50;2.50;;;;;25.96;32.41;100746.22;5097373;27;45547;-65
2022/08/27 15:46:18;;;;;;;;;1.00;1.00;;;;;25.95;32.99;100741.81;5047486;27;45563;-66
2022/08/27 15:49:01;;;;;;;;;3.80;3.80;;;;;25.93;32.90;100750.06;5033922;27;45526;-64
2022/08/27 15:51:54;;;;;;;;;3.00;3.00;;;;;25.94;33.39;100751.75;5063035;27;45486;-65
2022/08/27 15:54:41;;;;;;;;;2.00;2.00;;;;;25.96;33.29;100757.84;5060097;27;45587;-65
2022/08/27 15:57:13;;;;;;;;;8.00;7.50;;;;;25.96;33.26;100754.31;5081423;27;45525;-63
2022/08/27 16:02:36;;;;;;;;;2.00;2.00;;;;;25.95;33.67;100757.97;5070471;27;45563;-65
2022/08/27 16:05:36;;;;;;;;;3.25;3.25;;;;;25.91;33.26;100749.34;5046063;27;45596;-64
2022/08/27 16:21:40;;;;;;;;;4.25;4.25;;;;;25.86;33.31;100753.50;5098827;27;45780;-64
2022/08/27 16:24:08;;;;;;;;;3.00;3.00;;;;;25.88;33.48;100749.66;5097907;27;45466;-65
2022/08/27 16:26:34;;;;;;;;;2.00;2.00;;;;;25.88;33.42;100755.06;5100203;27;45435;-64
2022/08/27 16:29:00;;;;;;;;;2.00;2.00;;;;;25.89;33.36;100743.25;5098660;27;45425;-66
2022/08/27 16:31:35;;;;;;;;;4.25;3.50;;;;;25.93;33.25;100743.84;5099691;27;45434;-64
2022/08/27 16:34:16;;;;;;;;;4.00;3.00;;;;;25.94;33.47;100740.97;5052084;27;45569;-65
2022/08/27 16:37:04;;;;;;;;;5.00;3.60;;;;;26.03;33.04;100743.75;5067449;27;45510;-63
2022/08/27 16:39:44;;;;;;;;;2.00;2.00;;;;;26.02;32.86;100742.06;5067679;27;45675;-63
2022/08/27 16:42:25;;;;;;;;;2.00;2.00;;;;;26.03;33.08;100739.22;5084909;27;45509;-65
2022/08/27 16:44:59;;;;;;;;;4.00;4.00;;;;;26.02;33.03;100737.53;5020753;27;45566;-65
2022/08/27 16:50:35;;;;;;;;;3.50;3.50;;;;;26.04;32.95;100734.69;5074877;27;45464;-64